createdAt,value
2019-02-15T00:01:46.657Z,100.00
2019-02-15T00:04:54.505Z,100.00
2019-02-15T00:08:01.952Z,100.00
2019-02-15T00:11:09.659Z,100.00
2019-02-15T00:14:17.255Z,100.00
2019-02-15T00:17:44.197Z,100.00
2019-02-15T00:20:56.338Z,100.00
2019-02-15T00:24:04.013Z,100.00
2019-02-15T00:27:11.227Z,100.00
2019-02-15T00:30:19.143Z,100.00
2019-02-15T00:33:26.423Z,100.00
2019-02-15T00:36:33.608Z,100.00
2019-02-15T00:39:40.785Z,100.00
2019-02-15T00:42:48.272Z,100.00
2019-02-15T00:46:18.329Z,100.00
2019-02-15T00:49:33.667Z,100.00
2019-02-15T00:53:03.246Z,100.00
2019-02-15T00:56:32.426Z,100.00
2019-02-15T00:59:54.232Z,100.00
2019-02-15T01:03:29.936Z,100.00
2019-02-15T01:06:56.302Z,100.00
2019-02-15T01:10:16.823Z,100.00
2019-02-15T01:13:30.888Z,100.00
2019-02-15T01:16:34.483Z,100.00
2019-02-15T01:19:41.754Z,100.00
2019-02-15T01:22:49.033Z,100.00
2019-02-15T01:26:14.564Z,100.00
2019-02-15T01:29:29.239Z,100.00
2019-02-15T01:32:59.560Z,100.00
2019-02-15T01:36:20.415Z,100.00
2019-02-15T01:39:50.300Z,100.00
2019-02-15T01:43:03.639Z,100.00
2019-02-15T01:46:17.969Z,100.00
2019-02-15T01:49:25.540Z,100.00
2019-02-15T01:52:33.086Z,100.00
2019-02-15T01:55:40.360Z,100.00
2019-02-15T01:58:47.956Z,100.00
2019-02-15T02:01:55.597Z,100.00
2019-02-15T02:05:03.203Z,100.00
2019-02-15T02:08:14.271Z,100.00
2019-02-15T02:11:21.440Z,100.00
2019-02-15T02:14:29.037Z,100.00
2019-02-15T02:17:36.321Z,100.00
2019-02-15T02:20:43.864Z,100.00
2019-02-15T02:23:51.440Z,100.00
2019-02-15T02:26:58.991Z,100.00
2019-02-15T02:30:08.970Z,100.00
2019-02-15T02:33:16.681Z,100.00
2019-02-15T02:37:02.131Z,100.00
2019-02-15T02:40:10.279Z,100.00
2019-02-15T02:43:17.617Z,100.00
2019-02-15T02:46:25.270Z,100.00
2019-02-15T02:49:32.787Z,100.00
2019-02-15T02:52:40.257Z,100.00
2019-02-15T02:55:47.483Z,100.00
2019-02-15T02:58:55.377Z,100.00
2019-02-15T03:02:03.056Z,100.00
2019-02-15T03:05:10.960Z,100.00
2019-02-15T03:08:18.294Z,100.00
2019-02-15T03:11:25.662Z,100.00
2019-02-15T03:14:32.849Z,100.00
2019-02-15T03:17:40.035Z,100.00
2019-02-15T03:20:47.313Z,100.00
2019-02-15T03:23:54.518Z,100.00
2019-02-15T03:27:01.845Z,100.00
2019-02-15T03:30:09.389Z,100.00
2019-02-15T03:33:17.248Z,100.00
2019-02-15T03:36:44.172Z,100.00
2019-02-15T03:40:00.045Z,100.00
2019-02-15T03:43:07.557Z,100.00
2019-02-15T03:46:15.949Z,100.00
2019-02-15T03:49:23.413Z,100.00
2019-02-15T03:52:30.975Z,100.00
2019-02-15T03:55:38.609Z,100.00
2019-02-15T03:58:46.187Z,100.00
2019-02-15T04:01:53.972Z,100.00
2019-02-15T04:05:01.585Z,100.00
2019-02-15T04:08:08.992Z,100.00
2019-02-15T04:11:16.273Z,100.00
2019-02-15T04:14:32.561Z,100.00
2019-02-15T04:17:32.777Z,100.00
2019-02-15T04:20:39.967Z,100.00
2019-02-15T04:23:47.525Z,100.00
2019-02-15T04:26:55.067Z,100.00
2019-02-15T04:30:02.883Z,100.00
2019-02-15T04:33:10.321Z,100.00
2019-02-15T04:36:17.610Z,100.00
2019-02-15T04:39:25.455Z,100.00
2019-02-15T04:42:32.659Z,100.00
2019-02-15T04:45:40.138Z,100.00
2019-02-15T04:48:47.345Z,100.00
2019-02-15T04:51:55.278Z,100.00
2019-02-15T04:55:03.273Z,100.00
2019-02-15T04:58:10.747Z,100.00
2019-02-15T05:01:19.017Z,100.00
2019-02-15T05:04:26.187Z,100.00
2019-02-15T05:07:33.677Z,100.00
2019-02-15T05:10:41.268Z,100.00
2019-02-15T05:13:48.739Z,100.00
2019-02-15T05:16:56.404Z,100.00
2019-02-15T05:20:04.036Z,100.00
2019-02-15T05:23:12.541Z,100.00
2019-02-15T05:26:20.337Z,100.00
2019-02-15T05:29:28.248Z,100.00
2019-02-15T05:32:35.765Z,100.00
2019-02-15T05:35:43.545Z,100.00
2019-02-15T05:38:51.805Z,100.00
2019-02-15T05:41:59.662Z,100.00
2019-02-15T05:45:07.317Z,100.00
2019-02-15T05:48:14.791Z,100.00
2019-02-15T05:51:22.067Z,100.00
2019-02-15T05:54:29.459Z,100.00
2019-02-15T05:57:37.493Z,100.00
2019-02-15T06:00:44.913Z,100.00
2019-02-15T06:03:52.060Z,100.00
2019-02-15T06:07:00.158Z,100.00
2019-02-15T06:10:08.241Z,100.00
2019-02-15T06:13:15.866Z,100.00
2019-02-15T06:16:24.279Z,100.00
2019-02-15T06:19:32.282Z,100.00
2019-02-15T06:22:39.509Z,100.00
2019-02-15T06:25:47.296Z,100.00
2019-02-15T06:28:55.679Z,100.00
2019-02-15T06:32:03.309Z,100.00
2019-02-15T06:35:11.337Z,100.00
2019-02-15T06:38:19.334Z,100.00
2019-02-15T06:41:27.018Z,100.00
2019-02-15T06:44:34.396Z,100.00
2019-02-15T06:47:42.002Z,100.00
2019-02-15T06:50:49.617Z,100.00
2019-02-15T06:53:58.211Z,100.00
2019-02-15T06:57:06.067Z,100.00
2019-02-15T07:00:34.415Z,100.00
2019-02-15T07:04:03.121Z,100.00
2019-02-15T07:07:11.300Z,100.00
2019-02-15T07:10:19.421Z,100.00
2019-02-15T07:13:27.110Z,100.00
2019-02-15T07:16:34.547Z,100.00
2019-02-15T07:19:43.724Z,100.00
2019-02-15T07:22:51.168Z,100.00
2019-02-15T07:25:59.265Z,100.00
2019-02-15T07:29:06.847Z,100.00
2019-02-15T07:32:14.552Z,94.54
2019-02-15T07:35:22.556Z,92.07
2019-02-15T07:38:30.614Z,92.11
2019-02-15T07:41:38.543Z,89.24
2019-02-15T07:44:46.965Z,88.63
2019-02-15T07:47:54.655Z,87.11
2019-02-15T07:51:09.371Z,88.09
2019-02-15T07:54:12.245Z,88.30
2019-02-15T07:57:19.853Z,87.26
2019-02-15T08:00:27.946Z,86.66
2019-02-15T08:03:35.225Z,85.93
2019-02-15T08:06:42.785Z,85.88
2019-02-15T08:09:50.001Z,85.13
2019-02-15T08:12:57.285Z,84.06
2019-02-15T08:16:04.656Z,83.48
2019-02-15T08:19:12.548Z,83.67
2019-02-15T08:22:20.301Z,83.79
2019-02-15T08:25:27.768Z,83.29
2019-02-15T08:28:35.299Z,82.80
2019-02-15T08:31:43.169Z,81.15
2019-02-15T08:34:50.931Z,80.35
2019-02-15T08:37:58.357Z,79.58
2019-02-15T08:41:06.248Z,80.21
2019-02-15T08:44:14.382Z,78.56
2019-02-15T08:47:22.224Z,79.27
2019-02-15T08:50:29.701Z,78.22
2019-02-15T08:53:37.018Z,77.32
2019-02-15T08:56:44.446Z,76.21
2019-02-15T08:59:52.557Z,76.21
2019-02-15T09:02:59.862Z,75.82
2019-02-15T09:06:07.212Z,74.86
2019-02-15T09:09:14.845Z,74.86
2019-02-15T09:12:23.300Z,73.92
2019-02-15T09:15:30.957Z,73.64
2019-02-15T09:18:38.985Z,73.08
2019-02-15T09:21:47.486Z,71.40
2019-02-15T09:24:55.233Z,71.33
2019-02-15T09:28:22.174Z,70.04
2019-02-15T09:31:30.067Z,69.11
2019-02-15T09:34:37.798Z,68.62
2019-02-15T09:37:45.196Z,68.91
2019-02-15T09:40:52.771Z,68.37
2019-02-15T09:44:00.987Z,68.26
2019-02-15T09:47:08.698Z,66.98
2019-02-15T09:50:16.373Z,67.15
2019-02-15T09:53:24.577Z,66.65
2019-02-15T09:56:33.015Z,65.66
2019-02-15T09:59:40.524Z,65.54
2019-02-15T10:02:48.319Z,64.51
2019-02-15T10:05:55.832Z,64.43
2019-02-15T10:09:05.475Z,63.55
2019-02-15T10:12:13.128Z,62.75
2019-02-15T10:15:20.827Z,62.39
2019-02-15T10:18:28.605Z,62.00
2019-02-15T10:21:35.927Z,61.69
2019-02-15T10:24:44.035Z,62.35
2019-02-15T10:27:51.529Z,61.26
2019-02-15T10:30:59.457Z,60.66
2019-02-15T10:34:07.249Z,62.36
2019-02-15T10:37:14.677Z,60.05
2019-02-15T10:40:22.472Z,61.66
2019-02-15T10:43:30.698Z,60.12
2019-02-15T10:46:38.233Z,59.16
2019-02-15T10:49:45.871Z,60.40
2019-02-15T10:52:53.708Z,57.90
2019-02-15T10:56:01.311Z,58.04
2019-02-15T10:59:11.156Z,58.36
2019-02-15T11:02:18.808Z,58.61
2019-02-15T11:05:26.445Z,58.06
2019-02-15T11:08:34.235Z,56.62
2019-02-15T11:11:42.118Z,56.52
2019-02-15T11:14:49.718Z,57.54
2019-02-15T11:17:57.270Z,55.26
2019-02-15T11:21:04.821Z,55.76
2019-02-15T11:24:12.139Z,55.10
2019-02-15T11:27:19.626Z,54.18
2019-02-15T11:30:27.022Z,54.50
2019-02-15T11:33:34.858Z,53.88
2019-02-15T11:36:42.646Z,53.54
2019-02-15T11:39:50.084Z,55.10
2019-02-15T11:42:57.614Z,52.79
2019-02-15T11:46:05.254Z,52.56
2019-02-15T11:49:12.712Z,52.05
2019-02-15T11:52:20.013Z,52.95
2019-02-15T11:55:27.572Z,52.57
2019-02-15T11:58:34.887Z,50.99
2019-02-15T12:01:42.581Z,49.41
2019-02-15T12:04:50.098Z,52.47
2019-02-15T12:07:57.408Z,53.71
2019-02-15T12:11:04.797Z,53.13
2019-02-15T12:14:12.342Z,53.93
2019-02-15T12:17:19.940Z,52.49
2019-02-15T12:20:27.758Z,51.48
2019-02-15T12:23:35.377Z,52.04
2019-02-15T12:26:42.828Z,51.08
2019-02-15T12:29:50.396Z,51.37
2019-02-15T12:32:57.961Z,50.48
2019-02-15T12:36:05.632Z,48.27
2019-02-15T12:39:14.411Z,48.47
2019-02-15T12:42:22.195Z,47.55
2019-02-15T12:45:29.616Z,47.50
2019-02-15T12:48:37.313Z,46.57
2019-02-15T12:51:44.640Z,46.77
2019-02-15T12:54:52.226Z,46.67
2019-02-15T12:57:59.781Z,47.11
2019-02-15T13:01:07.221Z,45.98
2019-02-15T13:04:14.879Z,45.94
2019-02-15T13:07:22.300Z,46.07
2019-02-15T13:10:31.621Z,45.75
2019-02-15T13:13:39.545Z,45.08
2019-02-15T13:16:47.107Z,46.07
2019-02-15T13:19:54.790Z,46.29
2019-02-15T13:23:02.126Z,46.14
2019-02-15T13:26:09.395Z,45.93
2019-02-15T13:29:17.201Z,44.32
2019-02-15T13:32:24.627Z,45.13
2019-02-15T13:35:31.960Z,45.11
2019-02-15T13:38:39.284Z,44.76
2019-02-15T13:41:46.943Z,45.78
2019-02-15T13:44:54.246Z,45.90
2019-02-15T13:48:01.818Z,46.13
2019-02-15T13:51:09.210Z,46.79
2019-02-15T13:54:16.639Z,46.55
2019-02-15T13:57:23.945Z,46.90
2019-02-15T14:03:47.246Z,46.74
2019-02-15T14:06:55.914Z,47.00
2019-02-15T14:10:04.507Z,47.75
2019-02-15T14:13:12.097Z,49.21
2019-02-15T14:16:19.992Z,49.66
2019-02-15T14:19:27.391Z,50.60
2019-02-15T14:22:35.363Z,51.51
2019-02-15T14:25:43.664Z,51.16
2019-02-15T14:28:51.758Z,51.65
2019-02-15T14:31:59.288Z,52.87
2019-02-15T14:35:07.859Z,52.99
2019-02-15T14:38:15.287Z,54.05
2019-02-15T14:41:23.755Z,54.04
2019-02-15T14:44:31.879Z,54.35
2019-02-15T14:47:39.146Z,55.15
2019-02-15T14:50:46.611Z,54.97
2019-02-15T14:53:54.162Z,54.79
2019-02-15T14:57:01.606Z,55.70
2019-02-15T15:00:10.700Z,56.21
2019-02-15T15:03:21.391Z,56.95
2019-02-15T15:06:29.368Z,57.03
2019-02-15T15:09:37.924Z,56.79
2019-02-15T15:12:45.539Z,57.32
2019-02-15T15:15:53.097Z,57.79
2019-02-15T15:19:01.057Z,58.22
2019-02-15T15:22:08.875Z,58.86
2019-02-15T15:25:16.507Z,59.03
2019-02-15T15:28:24.337Z,59.06
2019-02-15T15:31:32.423Z,59.33
2019-02-15T15:34:40.251Z,60.13
2019-02-15T15:37:48.299Z,60.67
2019-02-15T15:40:56.234Z,60.22
2019-02-15T15:44:04.812Z,60.97
2019-02-15T15:47:12.841Z,60.71
2019-02-15T15:50:21.275Z,61.24
2019-02-15T15:53:29.521Z,62.14
2019-02-15T15:56:37.313Z,62.68
2019-02-15T15:59:44.833Z,63.54
2019-02-15T16:02:52.805Z,64.12
2019-02-15T16:06:00.722Z,64.30
2019-02-15T16:09:09.338Z,64.97
2019-02-15T16:12:17.352Z,65.80
2019-02-15T16:15:25.258Z,67.26
2019-02-15T16:18:35.099Z,66.19
2019-02-15T16:21:44.466Z,66.39
2019-02-15T16:24:52.678Z,67.37
2019-02-15T16:28:01.191Z,68.28
2019-02-15T16:31:09.165Z,68.75
2019-02-15T16:34:18.736Z,69.41
2019-02-15T16:37:26.918Z,69.79
2019-02-15T16:40:34.728Z,70.62
2019-02-15T16:43:43.006Z,70.28
2019-02-15T16:46:51.115Z,70.54
2019-02-15T16:49:59.505Z,70.66
2019-02-15T16:53:08.093Z,70.85
2019-02-15T16:56:16.535Z,71.52
2019-02-15T16:59:24.140Z,71.86
2019-02-15T17:02:31.450Z,71.08
2019-02-15T17:05:39.169Z,71.31
2019-02-15T17:08:48.083Z,72.44
2019-02-15T17:11:56.349Z,72.72
2019-02-15T17:15:04.531Z,72.80
2019-02-15T17:18:12.550Z,72.81
2019-02-15T17:21:20.869Z,72.67
2019-02-15T17:24:29.330Z,72.42
2019-02-15T17:27:37.187Z,72.60
2019-02-15T17:30:45.209Z,73.14
2019-02-15T17:33:53.011Z,72.70
2019-02-15T17:37:00.226Z,72.83
2019-02-15T17:40:09.383Z,72.61
2019-02-15T17:43:18.168Z,72.73
2019-02-15T17:46:25.626Z,72.45
2019-02-15T17:49:33.786Z,72.67
2019-02-15T17:52:41.464Z,72.96
2019-02-15T17:55:49.285Z,73.71
2019-02-15T17:58:57.084Z,74.17
2019-02-15T18:02:06.936Z,73.92
2019-02-15T18:05:17.029Z,73.88
2019-02-15T18:08:24.791Z,74.19
2019-02-15T18:11:32.993Z,74.71
2019-02-15T18:14:42.536Z,75.40
2019-02-15T18:17:50.291Z,75.75
2019-02-15T18:20:58.190Z,75.77
2019-02-15T18:24:06.160Z,75.88
2019-02-15T18:27:14.194Z,76.09
2019-02-15T18:30:22.492Z,75.82
2019-02-15T18:33:30.959Z,76.17
2019-02-15T18:36:38.644Z,76.62
2019-02-15T18:39:46.117Z,77.17
2019-02-15T18:42:53.956Z,77.72
2019-02-15T18:46:01.647Z,78.19
2019-02-15T18:49:09.193Z,78.40
2019-02-15T18:52:17.353Z,78.59
2019-02-15T18:55:26.567Z,78.76
2019-02-15T18:58:34.680Z,79.21
2019-02-15T19:01:43.368Z,79.92
2019-02-15T19:04:51.138Z,80.27
2019-02-15T19:07:59.817Z,81.15
2019-02-15T19:11:07.338Z,81.73
2019-02-15T19:14:15.258Z,82.15
2019-02-15T19:17:22.682Z,82.93
2019-02-15T19:20:31.363Z,83.05
2019-02-15T19:23:39.069Z,83.50
2019-02-15T19:26:47.157Z,84.44
2019-02-15T19:29:54.746Z,85.25
2019-02-15T19:33:03.001Z,86.62
2019-02-15T19:36:10.493Z,87.38
2019-02-15T19:39:18.004Z,87.54
2019-02-15T19:42:25.854Z,88.02
2019-02-15T19:45:33.724Z,88.17
2019-02-15T19:48:41.774Z,88.44
2019-02-15T19:51:49.279Z,87.36
2019-02-15T19:54:57.530Z,87.60
2019-02-15T19:58:05.004Z,88.51
2019-02-15T20:01:13.024Z,89.22
2019-02-15T20:04:21.326Z,89.93
2019-02-15T20:07:29.266Z,90.92
2019-02-15T20:10:37.204Z,91.51
2019-02-15T20:13:44.933Z,92.06
2019-02-15T20:16:52.713Z,92.06
2019-02-15T20:20:00.844Z,92.73
2019-02-15T20:23:08.894Z,93.07
2019-02-15T20:26:17.185Z,93.40
2019-02-15T20:29:24.868Z,93.52
2019-02-15T20:32:33.088Z,93.71
2019-02-15T20:35:41.262Z,94.00
2019-02-15T20:38:50.229Z,94.71
2019-02-15T20:41:58.272Z,95.07
2019-02-15T20:45:13.356Z,95.33
2019-02-15T20:48:20.834Z,95.86
2019-02-15T20:51:28.193Z,95.81
2019-02-15T20:54:36.156Z,95.82
2019-02-15T20:57:43.943Z,96.21
2019-02-15T21:00:52.558Z,96.55
2019-02-15T21:04:01.021Z,96.43
2019-02-15T21:07:09.308Z,96.85
2019-02-15T21:10:18.977Z,96.72
2019-02-15T21:13:27.590Z,96.64
2019-02-15T21:16:36.866Z,96.63
2019-02-15T21:19:45.837Z,96.92
2019-02-15T21:22:54.535Z,97.16
2019-02-15T21:26:03.044Z,97.30
2019-02-15T21:29:12.263Z,97.57
2019-02-15T21:32:21.756Z,98.18
2019-02-15T21:35:30.370Z,97.13
2019-02-15T21:38:39.414Z,94.21
2019-02-15T21:41:48.528Z,95.28
2019-02-15T21:44:57.210Z,96.57
2019-02-15T21:48:06.080Z,98.36
2019-02-15T21:51:14.695Z,99.22
2019-02-15T21:54:23.025Z,99.56
2019-02-15T21:57:30.954Z,99.24
2019-02-15T22:00:39.969Z,99.33
2019-02-15T22:03:48.210Z,99.15
2019-02-15T22:06:56.183Z,98.84
2019-02-15T22:10:04.929Z,99.51
2019-02-15T22:13:13.607Z,100.00
2019-02-15T22:16:21.548Z,99.91
2019-02-15T22:19:29.033Z,99.11
2019-02-15T22:22:37.448Z,99.29
2019-02-15T22:25:45.015Z,100.00
2019-02-15T22:28:52.795Z,100.00
2019-02-15T22:32:00.984Z,100.00
2019-02-15T22:35:08.775Z,100.00
2019-02-15T22:38:16.917Z,100.00
2019-02-15T22:41:26.672Z,99.82
2019-02-15T22:44:34.989Z,98.99
2019-02-15T22:47:43.593Z,99.13
2019-02-15T22:50:51.497Z,99.34
2019-02-15T22:53:59.992Z,99.54
2019-02-15T22:57:08.092Z,99.73
2019-02-15T23:00:39.302Z,100.00
2019-02-15T23:03:46.680Z,100.00
2019-02-15T23:06:55.784Z,100.00
2019-02-15T23:10:05.845Z,100.00
2019-02-15T23:13:14.239Z,100.00
2019-02-15T23:16:22.370Z,100.00
2019-02-15T23:19:30.064Z,100.00
2019-02-15T23:22:37.618Z,100.00
2019-02-15T23:25:47.634Z,100.00
2019-02-15T23:28:55.148Z,100.00
2019-02-15T23:32:03.745Z,100.00
2019-02-15T23:35:11.676Z,100.00
2019-02-15T23:38:20.422Z,100.00
2019-02-15T23:41:28.802Z,100.00
2019-02-15T23:44:37.262Z,100.00
2019-02-15T23:47:46.129Z,100.00
2019-02-15T23:50:55.308Z,100.00
2019-02-15T23:57:19.483Z,100.00
